Time;durP1;ratioP1;P1;durP2;ratioP2;P2;SDS_P1;SDS_P2;PMS_P1;PMS_P2;Temp;Humidity;BMP_temperature;BMP_pressure;BME280_temperature;BME280_humidity;BME280_pressure;Samples;Min_cycle;Max_cycle;Signal;HPM_P1;HPM_P2
2023/01/19 00:01:55;;;;;;;36.60;20.17;;;11.00;99.90;;;;;;5013079;28;20109;-74
2023/01/19 00:04:22;;;;;;;28.20;14.23;;;11.00;99.90;;;;;;5013110;28;20137;-74
2023/01/19 00:06:48;;;;;;;20.40;11.55;;;11.00;99.90;;;;;;5013091;28;20046;-73
2023/01/19 00:09:14;;;;;;;17.77;9.15;;;11.00;99.90;;;;;;5013251;28;20022;-75
2023/01/19 00:11:39;;;;;;;17.98;8.15;;;10.90;99.90;;;;;;5012715;28;20522;-74
2023/01/19 00:14:05;;;;;;;17.55;8.15;;;10.90;99.90;;;;;;5012934;28;20018;-74
2023/01/19 00:16:31;;;;;;;18.52;7.93;;;10.90;99.90;;;;;;5012949;28;20079;-73
2023/01/19 00:18:57;;;;;;;15.95;7.38;;;10.90;99.90;;;;;;5012719;28;20113;-74
2023/01/19 00:21:23;;;;;;;15.27;5.97;;;10.90;99.90;;;;;;5012973;28;20030;-73
2023/01/19 00:23:51;;;;;;;13.35;5.85;;;10.90;99.90;;;;;;5012475;28;20032;-75
2023/01/19 00:26:17;;;;;;;15.18;7.05;;;10.80;99.90;;;;;;5011940;28;20466;-74
2023/01/19 00:28:43;;;;;;;13.95;5.82;;;10.80;99.90;;;;;;5012677;28;20075;-75
2023/01/19 00:31:11;;;;;;;20.48;5.88;;;10.80;99.90;;;;;;5012828;28;20034;-73
2023/01/19 00:33:37;;;;;;;13.65;6.05;;;10.80;99.90;;;;;;5012699;28;20378;-74
2023/01/19 00:36:03;;;;;;;15.93;6.60;;;10.70;99.90;;;;;;5012864;28;20030;-75
2023/01/19 00:38:29;;;;;;;16.75;7.25;;;10.70;99.90;;;;;;5011214;28;20026;-73
2023/01/19 00:40:55;;;;;;;31.45;15.50;;;10.70;99.90;;;;;;5012299;28;20072;-74
2023/01/19 00:43:21;;;;;;;20.40;9.00;;;10.70;99.90;;;;;;5012701;28;20028;-75
2023/01/19 00:45:47;;;;;;;22.70;11.15;;;10.60;99.90;;;;;;5012493;28;20366;-75
2023/01/19 00:48:13;;;;;;;24.33;12.35;;;10.60;99.90;;;;;;5012290;28;20054;-75
2023/01/19 00:50:38;;;;;;;18.50;9.13;;;10.60;99.90;;;;;;5012248;28;20133;-74
2023/01/19 00:53:04;;;;;;;20.48;7.88;;;10.60;99.90;;;;;;5023123;28;20388;-72
2023/01/19 00:55:32;;;;;;;15.18;7.20;;;10.50;99.90;;;;;;5013579;28;20433;-75
2023/01/19 00:57:58;;;;;;;16.52;7.25;;;10.60;99.90;;;;;;5012276;28;20026;-74
2023/01/19 01:00:25;;;;;;;13.95;6.43;;;10.60;99.90;;;;;;4995595;28;20081;-74
2023/01/19 01:02:52;;;;;;;14.10;6.20;;;10.60;99.90;;;;;;4994281;28;20021;-74
2023/01/19 01:05:18;;;;;;;13.60;5.88;;;10.70;99.90;;;;;;5003781;28;20017;-73
2023/01/19 01:07:44;;;;;;;14.07;5.35;;;10.70;99.90;;;;;;5007689;28;20112;-74
2023/01/19 01:10:13;;;;;;;10.68;5.38;;;10.70;99.90;;;;;;5043684;28;20366;-72
2023/01/19 01:12:40;;;;;;;14.20;5.80;;;10.70;99.90;;;;;;5011709;28;20765;-73
2023/01/19 01:15:08;;;;;;;10.13;4.05;;;10.80;99.90;;;;;;5012483;28;20018;-76
2023/01/19 01:17:35;;;;;;;9.93;4.80;;;10.80;99.90;;;;;;5011897;28;20030;-73
2023/01/19 01:20:01;;;;;;;12.15;4.13;;;10.80;99.90;;;;;;5011035;28;20026;-73
2023/01/19 01:22:27;;;;;;;10.40;4.95;;;10.90;99.90;;;;;;5011117;28;20018;-73
2023/01/19 01:24:53;;;;;;;10.48;4.88;;;10.90;99.90;;;;;;5006251;28;20470;-73
2023/01/19 01:27:18;;;;;;;14.80;5.28;;;10.90;99.90;;;;;;5022539;28;20023;-73
2023/01/19 01:29:47;;;;;;;15.60;6.20;;;10.90;99.90;;;;;;4992975;28;20080;-73
2023/01/19 01:32:15;;;;;;;12.00;5.38;;;10.90;99.90;;;;;;5012328;28;20030;-74
2023/01/19 01:34:41;;;;;;;9.30;3.92;;;10.90;99.90;;;;;;5004677;28;20476;-73
2023/01/19 01:37:07;;;;;;;9.15;4.43;;;10.80;99.90;;;;;;5034126;28;20113;-73
2023/01/19 01:39:35;;;;;;;13.70;3.53;;;10.80;99.90;;;;;;5005392;28;20031;-73
2023/01/19 01:42:01;;;;;;;8.55;3.90;;;10.70;99.90;;;;;;4999380;28;20053;-74
2023/01/19 01:44:50;;;;;;;8.68;3.60;;;10.70;99.90;;;;;;4994512;28;20026;-73
2023/01/19 01:47:32;;;;;;;14.13;4.57;;;10.70;99.90;;;;;;5020416;28;20045;-73
2023/01/19 01:50:11;;;;;;;13.10;3.83;;;10.60;99.90;;;;;;5015744;28;20044;-74
2023/01/19 01:52:49;;;;;;;14.25;5.30;;;10.70;99.90;;;;;;5015792;28;20070;-74
2023/01/19 01:55:15;;;;;;;10.75;4.35;;;10.60;99.90;;;;;;5015159;28;20115;-73
2023/01/19 01:57:46;;;;;;;9.30;4.05;;;10.60;99.90;;;;;;5015492;28;20088;-74
2023/01/19 02:00:13;;;;;;;10.02;4.47;;;10.60;99.90;;;;;;5015501;28;20092;-75
2023/01/19 02:02:53;;;;;;;11.55;4.00;;;10.60;99.90;;;;;;5015367;28;20473;-75
2023/01/19 02:05:35;;;;;;;10.48;4.05;;;10.60;99.90;;;;;;5015756;28;20493;-73
2023/01/19 02:14:05;;;;;;;9.48;4.10;;;10.70;99.90;;;;;;5012222;28;20026;-74
2023/01/19 02:16:32;;;;;;;11.45;3.88;;;10.70;99.90;;;;;;5015418;28;20112;-75
2023/01/19 02:19:00;;;;;;;7.72;3.00;;;10.80;99.90;;;;;;5014705;28;20088;-74
2023/01/19 02:21:57;;;;;;;9.27;3.28;;;10.90;99.90;;;;;;5014578;28;20036;-74
2023/01/19 02:24:24;;;;;;;10.55;3.28;;;10.90;99.90;;;;;;5015129;28;20461;-73
2023/01/19 02:26:50;;;;;;;8.20;3.13;;;10.90;99.90;;;;;;5014779;28;20032;-73
2023/01/19 02:29:23;;;;;;;10.48;4.18;;;11.00;99.90;;;;;;5014930;28;20038;-73
2023/01/19 02:31:48;;;;;;;12.55;3.25;;;11.00;99.90;;;;;;5014839;28;20363;-73
2023/01/19 02:34:18;;;;;;;10.95;2.63;;;11.10;99.90;;;;;;5015964;28;20057;-72
2023/01/19 02:36:54;;;;;;;6.72;1.83;;;11.20;99.90;;;;;;5014829;28;20034;-73
2023/01/19 02:39:37;;;;;;;7.20;2.35;;;11.20;99.90;;;;;;5014970;28;20465;-73
2023/01/19 02:42:14;;;;;;;5.65;2.50;;;11.30;99.90;;;;;;5003074;28;20507;-74
2023/01/19 02:44:45;;;;;;;8.48;2.75;;;11.40;99.90;;;;;;5014444;28;20037;-74
2023/01/19 02:47:12;;;;;;;6.82;2.40;;;11.40;99.90;;;;;;5001569;28;20393;-74
2023/01/19 02:49:38;;;;;;;7.00;2.70;;;11.40;99.90;;;;;;5013820;28;20409;-73
2023/01/19 02:52:04;;;;;;;10.52;2.78;;;11.50;99.90;;;;;;5014534;28;20026;-77
2023/01/19 02:54:54;;;;;;;8.75;3.22;;;11.50;99.90;;;;;;5014277;28;20030;-74
2023/01/19 02:57:48;;;;;;;9.25;3.22;;;11.50;99.90;;;;;;5014598;28;20034;-73
2023/01/19 03:00:40;;;;;;;7.07;2.72;;;11.50;99.90;;;;;;5004783;28;20108;-73
2023/01/19 03:03:27;;;;;;;5.70;2.67;;;11.50;99.90;;;;;;5013128;28;20471;-73
2023/01/19 03:06:17;;;;;;;4.85;2.38;;;11.50;99.90;;;;;;5013941;28;20363;-74
2023/01/19 03:08:46;;;;;;;10.57;2.85;;;11.40;99.90;;;;;;5014223;28;20035;-73
2023/01/19 03:11:13;;;;;;;6.10;2.60;;;11.40;99.90;;;;;;5001383;28;20132;-74
2023/01/19 03:14:13;;;;;;;6.95;2.70;;;11.40;99.90;;;;;;5045341;28;20034;-74
2023/01/19 03:16:47;;;;;;;7.80;3.20;;;11.40;99.90;;;;;;4956984;28;20384;-74
2023/01/19 03:19:28;;;;;;;7.75;3.28;;;11.40;99.90;;;;;;4968066;28;20038;-73
2023/01/19 03:21:58;;;;;;;13.00;4.28;;;11.40;99.90;;;;;;4972541;28;20115;-73
2023/01/19 03:24:28;;;;;;;15.20;4.65;;;11.40;99.90;;;;;;4972897;28;20030;-73
2023/01/19 03:27:02;;;;;;;7.63;3.50;;;11.30;99.90;;;;;;4972367;28;20438;-74
2023/01/19 03:29:33;;;;;;;10.77;3.97;;;11.20;99.90;;;;;;4972586;28;20045;-74
2023/01/19 03:32:05;;;;;;;12.98;3.17;;;11.20;99.90;;;;;;4972723;28;20073;-73
2023/01/19 03:34:33;;;;;;;9.95;2.90;;;11.10;99.90;;;;;;4972307;28;20034;-74
2023/01/19 03:37:03;;;;;;;4.63;2.35;;;11.10;99.90;;;;;;4972510;28;20038;-74
2023/01/19 03:39:29;;;;;;;6.63;2.15;;;11.00;99.90;;;;;;4972359;28;20045;-74
2023/01/19 03:42:01;;;;;;;7.65;3.00;;;11.00;99.90;;;;;;4972817;28;20110;-73
2023/01/19 03:44:29;;;;;;;6.07;2.45;;;10.90;99.90;;;;;;4972534;28;20031;-73
2023/01/19 03:46:58;;;;;;;8.02;2.42;;;10.80;99.90;;;;;;4972250;28;20030;-73
2023/01/19 03:49:24;;;;;;;6.18;2.72;;;10.60;99.90;;;;;;4972243;28;20104;-73
2023/01/19 03:51:54;;;;;;;6.03;2.38;;;10.50;99.90;;;;;;4980172;28;20521;-77
2023/01/19 03:54:20;;;;;;;9.10;3.15;;;10.40;99.90;;;;;;5009036;28;20131;-72
2023/01/19 03:56:45;;;;;;;8.18;3.78;;;10.40;99.90;;;;;;5013304;28;20493;-74
2023/01/19 03:59:11;;;;;;;8.18;3.83;;;10.40;99.90;;;;;;5013250;28;20473;-73
2023/01/19 04:01:37;;;;;;;7.93;3.67;;;10.30;99.90;;;;;;5012973;28;20097;-74
2023/01/19 04:04:03;;;;;;;10.23;3.63;;;10.20;99.90;;;;;;5013078;28;20038;-72
2023/01/19 04:06:29;;;;;;;8.23;3.22;;;10.10;99.90;;;;;;5012644;28;20550;-75
2023/01/19 04:08:54;;;;;;;9.00;4.22;;;10.00;99.90;;;;;;5012308;28;20030;-73
2023/01/19 04:11:20;;;;;;;7.78;3.40;;;9.90;99.90;;;;;;5012995;28;20026;-74
2023/01/19 04:13:46;;;;;;;6.95;3.03;;;9.70;99.90;;;;;;5012768;28;20381;-72
2023/01/19 04:16:12;;;;;;;7.72;3.15;;;9.70;99.90;;;;;;5004117;28;20034;-75
2023/01/19 04:18:39;;;;;;;9.70;3.47;;;9.60;99.90;;;;;;5008186;28;20058;-73
2023/01/19 04:21:06;;;;;;;6.63;2.85;;;9.50;99.90;;;;;;5013082;28;20032;-73
2023/01/19 04:23:33;;;;;;;7.93;3.70;;;9.60;99.90;;;;;;5012513;28;20108;-73
2023/01/19 04:26:06;;;;;;;10.15;3.90;;;9.50;99.90;;;;;;5012811;28;20034;-75
2023/01/19 04:28:33;;;;;;;10.45;4.20;;;9.40;99.90;;;;;;5012458;28;20393;-73
2023/01/19 04:30:59;;;;;;;8.35;3.80;;;9.40;99.90;;;;;;5012388;28;20197;-75
2023/01/19 04:33:27;;;;;;;6.97;3.72;;;9.40;99.90;;;;;;5012707;28;20473;-74
2023/01/19 04:35:53;;;;;;;7.03;3.72;;;9.30;99.90;;;;;;5012863;28;20104;-74
2023/01/19 04:38:19;;;;;;;7.43;3.65;;;9.20;99.90;;;;;;5012461;28;20022;-74
2023/01/19 04:40:46;;;;;;;7.78;3.80;;;9.20;99.90;;;;;;5011243;28;20032;-73
2023/01/19 04:43:13;;;;;;;7.22;3.60;;;9.20;99.90;;;;;;5010404;28;20030;-76
2023/01/19 04:45:38;;;;;;;10.63;4.13;;;9.30;99.90;;;;;;5012863;28;20025;-76
2023/01/19 04:48:04;;;;;;;9.30;4.15;;;9.10;99.90;;;;;;5014122;28;20054;-75
2023/01/19 04:50:31;;;;;;;7.22;3.75;;;9.10;99.90;;;;;;5009848;28;20517;-73
2023/01/19 04:52:58;;;;;;;8.90;4.20;;;9.10;99.90;;;;;;5014017;28;20107;-73
2023/01/19 04:55:24;;;;;;;8.77;4.15;;;9.10;99.90;;;;;;5012139;28;20052;-73
2023/01/19 04:57:50;;;;;;;10.77;5.70;;;9.00;99.90;;;;;;5011996;28;20026;-74
2023/01/19 05:00:16;;;;;;;8.63;5.43;;;8.90;99.90;;;;;;5011874;28;20358;-74
2023/01/19 05:02:44;;;;;;;12.70;4.93;;;8.90;99.90;;;;;;5011652;28;20109;-74
2023/01/19 05:05:10;;;;;;;10.65;5.30;;;8.70;99.90;;;;;;5012011;28;20477;-74
2023/01/19 05:07:36;;;;;;;8.18;5.80;;;8.70;99.90;;;;;;5011928;28;20080;-73
2023/01/19 05:10:03;;;;;;;13.70;8.02;;;8.60;99.90;;;;;;5012025;28;20042;-73
2023/01/19 05:12:29;;;;;;;16.15;9.00;;;8.60;99.90;;;;;;5011266;28;20018;-74
2023/01/19 05:14:55;;;;;;;16.88;9.85;;;8.50;99.90;;;;;;5043262;28;20042;-75
2023/01/19 05:17:21;;;;;;;16.20;9.77;;;8.40;99.90;;;;;;4992987;28;20022;-73
2023/01/19 05:19:47;;;;;;;18.05;10.88;;;8.40;99.90;;;;;;5002301;28;20038;-75
2023/01/19 05:22:14;;;;;;;16.60;10.23;;;8.30;99.90;;;;;;5012061;28;20024;-74
2023/01/19 05:24:40;;;;;;;17.73;10.32;;;8.30;99.90;;;;;;5011761;28;20073;-75
2023/01/19 05:27:06;;;;;;;18.83;11.25;;;8.30;99.90;;;;;;5012047;28;20045;-75
2023/01/19 05:29:31;;;;;;;19.45;12.10;;;8.30;99.90;;;;;;5011706;28;20046;-75
2023/01/19 05:31:57;;;;;;;21.13;12.70;;;8.20;99.90;;;;;;5011715;28;20063;-74
2023/01/19 05:34:23;;;;;;;22.63;13.23;;;8.30;99.90;;;;;;5012157;28;20057;-74
2023/01/19 05:36:49;;;;;;;52.75;27.13;;;8.30;99.90;;;;;;5012018;28;20030;-76
2023/01/19 05:39:15;;;;;;;73.85;45.83;;;8.40;99.90;;;;;;5011872;28;20117;-75
2023/01/19 05:41:43;;;;;;;46.22;31.48;;;8.40;99.90;;;;;;5011710;28;20160;-73
2023/01/19 05:44:09;;;;;;;33.80;17.95;;;8.40;99.90;;;;;;5012113;28;20033;-76
2023/01/19 05:46:35;;;;;;;22.95;14.95;;;8.30;99.90;;;;;;5011635;28;20377;-75
2023/01/19 05:49:03;;;;;;;28.60;15.82;;;8.20;99.90;;;;;;5011743;28;20164;-72
2023/01/19 05:51:33;;;;;;;23.40;15.95;;;8.20;99.90;;;;;;5012083;28;20130;-76
2023/01/19 05:54:09;;;;;;;24.58;15.73;;;8.30;99.90;;;;;;5010569;28;20500;-75
2023/01/19 05:56:34;;;;;;;22.90;14.43;;;8.30;99.90;;;;;;5010927;28;20037;-75
2023/01/19 05:59:01;;;;;;;25.08;15.30;;;8.30;99.90;;;;;;5011621;28;20105;-74
2023/01/19 06:01:27;;;;;;;23.20;16.23;;;8.20;99.90;;;;;;5012032;28;20106;-75
2023/01/19 06:03:53;;;;;;;35.22;20.23;;;8.20;99.90;;;;;;5011766;28;20022;-75
2023/01/19 06:06:20;;;;;;;26.30;17.13;;;8.10;99.90;;;;;;5011935;28;20052;-75
2023/01/19 06:08:45;;;;;;;22.95;15.80;;;8.20;99.90;;;;;;5043045;28;20393;-76
2023/01/19 06:11:11;;;;;;;23.42;14.40;;;8.30;99.90;;;;;;5011740;28;20038;-76
2023/01/19 06:13:40;;;;;;;25.50;17.30;;;8.30;99.90;;;;;;5011309;28;20024;-75
2023/01/19 06:16:07;;;;;;;32.53;21.23;;;8.20;99.90;;;;;;4998904;28;20030;-75
2023/01/19 06:18:32;;;;;;;32.45;20.27;;;8.20;99.90;;;;;;5011154;28;20474;-75
2023/01/19 06:21:03;;;;;;;29.80;20.38;;;8.20;99.90;;;;;;5009200;28;20037;-76
2023/01/19 06:23:30;;;;;;;30.38;19.38;;;8.20;99.90;;;;;;5011288;28;20030;-75
2023/01/19 06:25:56;;;;;;;28.85;18.88;;;8.30;99.90;;;;;;5014060;28;20106;-74
2023/01/19 06:28:22;;;;;;;30.92;20.90;;;8.30;99.90;;;;;;5014643;28;20477;-75
2023/01/19 06:30:52;;;;;;;31.48;20.60;;;8.30;99.90;;;;;;5014809;28;20076;-74
2023/01/19 06:33:19;;;;;;;31.02;21.75;;;8.30;99.90;;;;;;5014919;28;20037;-74
2023/01/19 06:35:46;;;;;;;31.63;21.35;;;8.20;99.90;;;;;;5014828;28;20036;-75
2023/01/19 06:38:12;;;;;;;31.13;21.80;;;8.20;99.90;;;;;;5014465;28;20018;-74
2023/01/19 06:40:39;;;;;;;33.17;21.85;;;8.10;99.90;;;;;;5014721;28;20058;-72
2023/01/19 06:43:06;;;;;;;31.88;23.30;;;8.10;99.90;;;;;;5014436;28;20025;-74
2023/01/19 06:45:32;;;;;;;34.67;24.05;;;8.00;99.90;;;;;;5014514;28;20022;-73
2023/01/19 06:47:58;;;;;;;39.20;25.73;;;8.10;99.90;;;;;;5014504;28;20520;-73
2023/01/19 06:50:24;;;;;;;42.88;29.77;;;8.00;99.90;;;;;;5014517;28;20038;-73
2023/01/19 06:52:50;;;;;;;47.28;32.10;;;8.00;99.90;;;;;;5014121;28;20508;-74
2023/01/19 06:55:17;;;;;;;46.53;27.58;;;8.00;99.90;;;;;;5014501;28;20029;-73
2023/01/19 06:57:43;;;;;;;36.47;25.75;;;7.90;99.90;;;;;;5014182;28;20112;-74
2023/01/19 07:00:10;;;;;;;37.75;27.92;;;7.90;99.90;;;;;;5014869;28;20117;-74
2023/01/19 07:02:39;;;;;;;34.85;24.90;;;8.10;99.90;;;;;;5013951;28;20485;-73
2023/01/19 07:05:06;;;;;;;39.80;26.40;;;8.20;99.90;;;;;;5015122;28;20413;-74
2023/01/19 07:07:32;;;;;;;34.97;24.55;;;8.10;99.90;;;;;;5014095;28;20080;-73
2023/01/19 07:09:57;;;;;;;43.10;28.70;;;8.20;99.90;;;;;;5014151;28;20038;-74
2023/01/19 07:12:23;;;;;;;38.45;27.50;;;8.20;99.90;;;;;;5014131;28;20473;-74
2023/01/19 07:14:50;;;;;;;35.85;22.52;;;8.20;99.90;;;;;;5013843;28;20478;-74
2023/01/19 07:17:16;;;;;;;35.08;21.98;;;8.20;99.90;;;;;;5014243;28;20022;-74
2023/01/19 07:19:41;;;;;;;35.33;20.25;;;8.20;99.90;;;;;;5013930;28;20503;-73
2023/01/19 07:22:07;;;;;;;42.42;25.98;;;8.20;99.90;;;;;;5013697;28;20028;-77
2023/01/19 07:24:34;;;;;;;36.88;22.90;;;8.20;99.90;;;;;;5014098;28;20033;-73
2023/01/19 07:27:00;;;;;;;37.25;21.83;;;8.10;99.90;;;;;;5013918;28;20057;-75
2023/01/19 07:29:26;;;;;;;31.30;20.60;;;8.20;99.90;;;;;;5013903;28;20441;-74
2023/01/19 07:31:53;;;;;;;31.38;19.13;;;8.30;99.90;;;;;;5013871;28;20034;-74
2023/01/19 07:34:20;;;;;;;36.25;22.13;;;8.30;99.90;;;;;;5012437;28;20018;-74
2023/01/19 07:36:46;;;;;;;45.80;23.48;;;8.20;99.90;;;;;;5012436;28;20029;-74
2023/01/19 07:39:12;;;;;;;47.47;24.38;;;8.10;99.90;;;;;;5013369;28;20389;-76
2023/01/19 07:41:38;;;;;;;39.00;21.80;;;8.10;99.90;;;;;;5013676;28;20025;-73
2023/01/19 07:44:06;;;;;;;91.60;26.92;;;8.00;99.90;;;;;;5013739;28;20478;-73
2023/01/19 07:46:32;;;;;;;30.02;17.65;;;7.90;99.90;;;;;;5013186;28;20025;-73
2023/01/19 07:48:57;;;;;;;30.75;20.90;;;8.00;99.90;;;;;;5013308;28;20057;-72
2023/01/19 07:51:23;;;;;;;32.22;20.85;;;8.10;99.90;;;;;;5012980;28;20053;-73
2023/01/19 07:53:50;;;;;;;48.78;22.33;;;8.20;99.90;;;;;;5013438;28;20026;-73
2023/01/19 07:56:16;;;;;;;62.42;22.52;;;8.10;99.90;;;;;;5012831;28;20053;-77
2023/01/19 07:58:42;;;;;;;39.42;22.50;;;8.10;99.90;;;;;;5013383;28;20433;-73
2023/01/19 08:01:10;;;;;;;43.45;23.35;;;8.20;99.90;;;;;;5012840;28;20041;-73
2023/01/19 08:03:35;;;;;;;36.35;23.48;;;8.30;99.90;;;;;;5013338;28;20049;-72
2023/01/19 08:06:03;;;;;;;41.75;25.05;;;8.40;99.90;;;;;;5013368;28;20385;-76
2023/01/19 08:08:31;;;;;;;109.75;28.00;;;8.40;99.90;;;;;;5013109;28;20038;-74
2023/01/19 08:10:57;;;;;;;104.22;28.77;;;8.50;99.90;;;;;;5012751;28;20049;-74
2023/01/19 08:13:23;;;;;;;57.88;29.38;;;8.50;99.90;;;;;;5012650;28;20030;-74
2023/01/19 08:15:52;;;;;;;54.33;27.67;;;8.50;99.90;;;;;;5013061;28;20037;-74
2023/01/19 08:18:19;;;;;;;84.72;31.67;;;8.80;99.90;;;;;;5012500;28;20036;-74
2023/01/19 08:20:46;;;;;;;132.40;24.45;;;8.90;99.90;;;;;;5012803;28;20072;-73
2023/01/19 08:23:11;;;;;;;79.10;20.65;;;8.80;99.90;;;;;;5013054;28;20034;-73
2023/01/19 08:25:44;;;;;;;55.97;18.92;;;8.60;99.90;;;;;;5012455;28;20029;-74
2023/01/19 08:28:12;;;;;;;120.97;22.35;;;8.70;99.90;;;;;;5012172;28;20040;-73
2023/01/19 08:30:39;;;;;;;78.88;19.90;;;8.50;99.90;;;;;;5012043;28;20041;-75
2023/01/19 08:33:08;;;;;;;37.10;20.20;;;8.50;99.90;;;;;;5009873;28;20022;-75
2023/01/19 08:35:36;;;;;;;104.95;24.08;;;8.60;99.90;;;;;;5012427;28;20069;-74
2023/01/19 08:38:03;;;;;;;81.15;24.02;;;8.80;99.90;;;;;;5012656;28;20061;-73
2023/01/19 08:40:34;;;;;;;34.03;19.20;;;8.60;99.90;;;;;;5012830;28;20026;-74
2023/01/19 08:43:04;;;;;;;39.97;24.65;;;8.80;99.90;;;;;;5012443;28;20389;-74
2023/01/19 08:45:30;;;;;;;41.00;25.10;;;9.00;99.90;;;;;;5012511;28;20030;-74
2023/01/19 08:47:58;;;;;;;40.50;24.85;;;9.20;99.90;;;;;;5011421;28;20117;-74
2023/01/19 08:50:28;;;;;;;34.42;22.85;;;9.40;99.90;;;;;;5012360;28;20037;-74
2023/01/19 08:53:02;;;;;;;38.45;25.13;;;9.80;99.90;;;;;;5011832;28;20058;-74
2023/01/19 08:55:28;;;;;;;39.75;26.52;;;10.00;99.90;;;;;;5012418;28;20424;-74
2023/01/19 08:57:56;;;;;;;42.72;28.98;;;10.40;99.90;;;;;;5012244;28;20083;-75
2023/01/19 09:00:23;;;;;;;42.15;31.60;;;10.70;99.90;;;;;;5011678;28;20068;-75
2023/01/19 09:02:50;;;;;;;42.78;31.20;;;11.00;99.90;;;;;;5012088;28;20091;-74
2023/01/19 09:05:16;;;;;;;45.70;35.13;;;11.30;99.90;;;;;;5011959;28;20038;-74
2023/01/19 09:07:46;;;;;;;45.50;31.60;;;11.60;99.90;;;;;;5012186;28;20029;-75
2023/01/19 09:10:14;;;;;;;49.33;31.08;;;11.70;99.90;;;;;;5012055;28;20123;-75
2023/01/19 09:12:40;;;;;;;52.53;34.40;;;11.80;99.90;;;;;;5012359;28;20076;-74
2023/01/19 09:15:06;;;;;;;49.25;35.20;;;12.00;99.90;;;;;;5011945;28;20025;-75
2023/01/19 09:17:32;;;;;;;60.08;43.20;;;11.80;99.90;;;;;;5012466;28;20365;-74
2023/01/19 09:19:58;;;;;;;66.75;44.28;;;11.80;99.90;;;;;;5012179;28;20030;-74
2023/01/19 09:22:24;;;;;;;61.03;40.78;;;11.80;99.90;;;;;;5011329;28;20424;-75
2023/01/19 09:24:50;;;;;;;73.20;45.75;;;11.60;99.90;;;;;;5012368;28;20101;-73
2023/01/19 09:27:16;;;;;;;82.25;50.45;;;11.60;99.90;;;;;;5011890;28;20076;-75
2023/01/19 09:29:49;;;;;;;71.55;46.38;;;11.60;99.90;;;;;;5012214;28;20100;-73
2023/01/19 09:32:14;;;;;;;;;;;11.70;99.90;;;;;;5012389;28;20026;-74
2023/01/19 09:34:40;;;;;;;67.68;45.10;;;11.90;99.90;;;;;;5012161;28;19915;-73
2023/01/19 09:37:06;;;;;;;58.67;42.15;;;12.10;99.90;;;;;;5011728;28;20499;-73
2023/01/19 09:39:32;;;;;;;60.92;42.42;;;12.10;99.90;;;;;;5012027;28;20114;-75
2023/01/19 09:42:05;;;;;;;61.42;41.65;;;12.40;99.90;;;;;;5011939;28;20101;-76
2023/01/19 09:44:34;;;;;;;54.05;40.20;;;12.20;99.90;;;;;;5011327;28;20430;-73
2023/01/19 09:47:17;;;;;;;61.92;43.17;;;12.30;99.90;;;;;;5010709;28;20040;-76
2023/01/19 09:49:47;;;;;;;82.00;57.42;;;12.10;99.90;;;;;;5012478;28;20057;-74
2023/01/19 09:52:14;;;;;;;78.72;55.50;;;11.90;99.90;;;;;;5011623;28;20478;-75
2023/01/19 09:54:51;;;;;;;67.93;47.42;;;11.80;99.90;;;;;;5019310;28;20072;-76
2023/01/19 09:57:18;;;;;;;80.85;51.17;;;11.80;99.90;;;;;;5004306;28;20037;-73
2023/01/19 09:59:46;;;;;;;50.88;34.45;;;11.60;99.90;;;;;;5016512;28;20029;-74
2023/01/19 10:02:34;;;;;;;54.38;34.13;;;11.40;99.90;;;;;;5047262;28;20030;-74
2023/01/19 10:05:03;;;;;;;55.90;33.97;;;11.10;99.90;;;;;;5006807;28;20034;-74
2023/01/19 10:08:09;;;;;;;52.03;32.42;;;10.80;99.90;;;;;;5015560;28;20026;-77
2023/01/19 10:10:36;;;;;;;41.72;25.27;;;10.90;99.90;;;;;;4995214;28;20112;-74
2023/01/19 10:13:21;;;;;;;38.28;21.95;;;10.60;99.90;;;;;;5001412;28;20046;-74
2023/01/19 10:16:07;;;;;;;33.22;19.52;;;10.70;99.90;;;;;;5005894;28;20492;-75
2023/01/19 10:18:50;;;;;;;34.17;21.05;;;10.50;99.90;;;;;;5009850;28;20098;-76
2023/01/19 10:21:30;;;;;;;36.53;23.80;;;10.40;99.90;;;;;;4998151;28;20124;-74
2023/01/19 10:24:05;;;;;;;47.20;34.97;;;10.50;99.90;;;;;;4993005;28;20038;-75
2023/01/19 10:26:35;;;;;;;51.33;32.42;;;10.60;99.90;;;;;;4995372;28;20497;-73
2023/01/19 10:29:04;;;;;;;39.58;25.98;;;10.80;99.90;;;;;;5012583;28;20033;-76
2023/01/19 10:31:34;;;;;;;51.28;32.03;;;10.90;99.90;;;;;;4993395;28;20110;-75
2023/01/19 10:34:00;;;;;;;51.53;32.15;;;10.90;99.90;;;;;;4998145;28;20040;-74
2023/01/19 10:36:35;;;;;;;38.97;25.05;;;10.90;99.90;;;;;;5014812;28;20029;-75
2023/01/19 10:39:04;;;;;;;42.35;25.17;;;10.80;99.90;;;;;;5006503;28;20041;-75
2023/01/19 10:41:36;;;;;;;40.40;26.48;;;10.80;99.90;;;;;;5012322;28;20030;-75
2023/01/19 10:44:04;;;;;;;40.75;25.38;;;10.80;99.90;;;;;;5014849;28;20052;-74
2023/01/19 10:46:43;;;;;;;45.58;26.98;;;10.80;99.90;;;;;;5014433;28;20040;-74
2023/01/19 10:49:38;;;;;;;38.78;24.80;;;10.80;99.90;;;;;;5014398;28;20045;-75
2023/01/19 10:52:06;;;;;;;36.55;22.65;;;10.80;99.90;;;;;;5014645;28;20037;-74
2023/01/19 10:54:35;;;;;;;34.75;23.55;;;10.90;99.90;;;;;;5014382;28;20030;-74
2023/01/19 10:57:08;;;;;;;41.65;25.17;;;11.10;99.90;;;;;;5014461;28;20347;-75
2023/01/19 10:59:35;;;;;;;;;;;11.20;99.90;;;;;;5014848;28;20550;-75
2023/01/19 11:02:13;;;;;;;28.40;17.85;;;11.40;99.90;;;;;;5014351;28;19913;-75
2023/01/19 11:04:40;;;;;;;28.92;18.23;;;11.20;99.90;;;;;;5014069;28;20077;-74
2023/01/19 11:07:18;;;;;;;28.70;17.98;;;11.00;99.90;;;;;;5014471;28;20026;-73
2023/01/19 11:09:45;;;;;;;27.75;18.75;;;10.90;99.90;;;;;;5013855;28;20025;-73
2023/01/19 11:12:17;;;;;;;25.85;15.88;;;10.80;99.90;;;;;;5013613;28;20026;-75
2023/01/19 11:14:43;;;;;;;25.45;15.15;;;10.90;99.90;;;;;;5013935;28;20424;-74
2023/01/19 11:17:21;;;;;;;26.33;16.60;;;10.80;99.90;;;;;;5013921;28;20030;-73
2023/01/19 11:20:00;;;;;;;22.83;14.73;;;10.80;99.90;;;;;;5014055;28;20036;-74
2023/01/19 11:22:31;;;;;;;13.43;8.85;;;10.80;99.90;;;;;;5013761;28;20069;-73
2023/01/19 11:25:03;;;;;;;21.95;11.95;;;10.50;99.90;;;;;;5014045;28;20033;-74
2023/01/19 11:27:33;;;;;;;15.82;9.98;;;10.40;99.90;;;;;;5013973;28;20028;-74
2023/01/19 11:30:16;;;;;;;15.70;10.50;;;10.10;99.90;;;;;;5013489;28;20120;-73
2023/01/19 11:32:42;;;;;;;;;;;9.90;99.90;;;;;;5014225;28;20022;-74
2023/01/19 11:35:32;;;;;;;15.43;10.13;;;9.80;99.90;;;;;;5013569;28;19906;-74
2023/01/19 11:38:19;;;;;;;10.80;6.90;;;9.70;99.90;;;;;;5013500;28;20038;-74
2023/01/19 11:40:56;;;;;;;7.35;4.60;;;9.70;99.90;;;;;;5013753;28;20473;-73
2023/01/19 11:43:26;;;;;;;8.40;5.05;;;9.60;99.90;;;;;;5013566;28;20070;-74
2023/01/19 11:45:54;;;;;;;10.02;5.47;;;9.50;99.90;;;;;;5013657;28;20069;-73
2023/01/19 11:48:32;;;;;;;7.38;4.28;;;9.40;99.90;;;;;;5013453;28;20137;-74
2023/01/19 11:51:03;;;;;;;9.23;5.13;;;9.30;99.90;;;;;;5013141;28;20401;-74
2023/01/19 11:53:33;;;;;;;5.32;3.67;;;9.30;99.90;;;;;;5013514;28;20381;-74
2023/01/19 11:56:10;;;;;;;6.82;3.30;;;9.10;99.90;;;;;;5013481;28;20083;-73
2023/01/19 11:58:38;;;;;;;7.95;4.05;;;9.20;99.90;;;;;;5013550;28;20038;-74
2023/01/19 12:01:26;;;;;;;5.63;2.85;;;9.10;99.90;;;;;;5013274;28;20480;-74
2023/01/19 12:04:18;;;;;;;7.53;2.95;;;9.10;99.90;;;;;;5013271;28;20030;-75
2023/01/19 12:06:53;;;;;;;4.82;2.35;;;9.00;99.90;;;;;;5012989;28;20067;-73
2023/01/19 12:09:33;;;;;;;8.98;3.65;;;9.10;99.90;;;;;;5012699;28;20108;-73
2023/01/19 12:12:25;;;;;;;4.60;2.58;;;8.80;99.90;;;;;;5012857;28;20112;-74
2023/01/19 12:15:20;;;;;;;3.15;1.92;;;8.80;99.90;;;;;;5013143;28;20069;-73
2023/01/19 12:17:50;;;;;;;4.45;2.53;;;8.70;99.90;;;;;;5000805;28;20076;-74
2023/01/19 12:20:32;;;;;;;4.85;2.55;;;8.80;99.90;;;;;;5012653;28;20116;-74
2023/01/19 12:23:13;;;;;;;8.75;3.58;;;8.60;99.90;;;;;;5012875;28;20026;-74
2023/01/19 12:25:46;;;;;;;6.68;3.10;;;8.60;99.90;;;;;;5012636;28;20418;-74
2023/01/19 12:28:14;;;;;;;11.20;4.90;;;8.50;99.90;;;;;;5012447;28;20038;-74
2023/01/19 12:30:48;;;;;;;5.82;3.47;;;8.60;99.90;;;;;;5012762;28;20136;-73
2023/01/19 12:33:36;;;;;;;9.20;3.67;;;8.50;99.90;;;;;;5012252;28;20052;-73
2023/01/19 12:36:25;;;;;;;7.35;3.38;;;8.60;99.90;;;;;;5012601;28;20121;-73
2023/01/19 12:39:15;;;;;;;5.47;2.88;;;8.60;99.90;;;;;;5008789;28;20037;-74
2023/01/19 12:41:42;;;;;;;9.05;4.53;;;8.60;99.90;;;;;;5012723;28;20030;-73
2023/01/19 12:44:11;;;;;;;6.55;3.30;;;8.80;99.90;;;;;;5012723;28;20101;-77
2023/01/19 12:46:41;;;;;;;4.50;2.60;;;8.80;99.90;;;;;;5007323;28;20041;-73
2023/01/19 12:49:15;;;;;;;5.47;3.10;;;8.90;99.90;;;;;;5005322;28;20045;-77
2023/01/19 12:51:41;;;;;;;7.85;2.80;;;9.00;99.90;;;;;;5012201;28;20044;-74
2023/01/19 12:54:36;;;;;;;9.98;3.03;;;9.10;99.90;;;;;;5012302;28;20387;-76
2023/01/19 12:57:21;;;;;;;4.85;2.67;;;9.10;99.90;;;;;;5012004;28;20053;-76
2023/01/19 13:00:04;;;;;;;8.30;5.07;;;9.20;99.90;;;;;;5012025;28;20048;-76
2023/01/19 13:02:43;;;;;;;8.73;4.03;;;9.00;99.90;;;;;;4999453;28;20034;-77